Latest Weather Observations for Busselton Jetty

IDW60801

Issued at 6:23 am WST Wednesday 23 October 2019 (issued every 10 minutes, with the page automatically refreshed every 10 minutes)

About weather observations | Map of weather stations | Latest weather observations for WA | Other Formats
Station Details ID: 009937 Name: BUSSELTON JETTY Lat: -33.63 Lon: 115.34 Height: 3.0 m
Data from the previous 72 hours. | See also: Recent months at Busselton Jetty
Date/Time
WST
Temp
°C
App
Temp
°C
Dew
Point
°C
Rel
Hum
%
Delta-T
°C
Wind Press
QNH
hPa
Press
MSL
hPa
Rain since
9am
mm
Dir  Spd
km/h
Gust
km/h
Spd
kts
Gust
kts
23/06:00am - - - - - WNW 28 30 15 16 - - -
23/05:30am - - - - - WNW 28 33 15 18 - - -
23/05:00am - - - - - WNW 26 32 14 17 - - -
23/04:30am - - - - - WNW 30 35 16 19 - - -
23/04:00am - - - - - WNW 30 33 16 18 - - -
23/03:30am - - - - - WNW 28 32 15 17 - - -
23/03:00am - - - - - WNW 24 30 13 16 - - -
23/02:30am - - - - - WNW 24 28 13 15 - - -
23/02:00am - - - - - WNW 24 28 13 15 - - -
23/01:30am - - - - - WNW 20 30 11 16 - - -
23/01:00am - - - - - WNW 20 26 11 14 - - -
23/12:30am - - - - - WNW 22 26 12 14 - - -
23/12:00am - - - - - WNW 22 28 12 15 - - -
 
Date/Time
WST
Temp
°C
App
Temp
°C
Dew
Point
°C
Rel
Hum
%
Delta-T
°C
Wind Press
QNH
hPa
Press
MSL
hPa
Rain since
9am
mm
Dir  Spd
km/h
Gust
km/h
Spd
kts
Gust
kts
22/11:30pm - - - - - WNW 24 28 13 15 - - -
22/11:00pm - - - - - WNW 20 24 11 13 - - -
22/10:30pm - - - - - WNW 19 24 10 13 - - -
22/10:00pm - - - - - WNW 22 26 12 14 - - -
22/09:30pm - - - - - WNW 20 26 11 14 - - -
22/09:00pm - - - - - WNW 22 28 12 15 - - -
22/08:30pm - - - - - W 24 26 13 14 - - -
22/08:00pm - - - - - WNW 19 24 10 13 - - -
22/07:30pm - - - - - WNW 20 24 11 13 - - -
22/07:00pm - - - - - W 20 24 11 13 - - -
22/06:30pm - - - - - W 26 30 14 16 - - -
22/06:00pm - - - - - WNW 22 26 12 14 - - -
22/05:30pm - - - - - WNW 26 30 14 16 - - -
22/05:00pm - - - - - WNW 26 30 14 16 - - -
22/04:30pm - - - - - WNW 26 28 14 15 - - -
22/04:00pm - - - - - WNW 30 33 16 18 - - -
22/03:30pm - - - - - WNW 28 33 15 18 - - -
22/03:00pm - - - - - WNW 26 30 14 16 - - -
22/02:30pm - - - - - NW 26 28 14 15 - - -
22/02:00pm - - - - - NW 26 30 14 16 - - -
22/01:30pm - - - - - NW 22 28 12 15 - - -
22/01:00pm - - - - - NW 19 22 10 12 - - -
22/12:30pm - - - - - NNW 17 17 9 9 - - -
22/12:00pm - - - - - NNW 15 17 8 9 - - -
22/11:30am - - - - - NNW 13 15 7 8 - - -
22/11:00am - - - - - NW 13 15 7 8 - - -
22/10:30am - - - - - N 11 11 6 6 - - -
22/10:00am - - - - - NNE 15 17 8 9 - - -
22/09:30am - - - - - NE 13 15 7 8 - - -
22/09:00am - - - - - ENE 11 13 6 7 - - -
22/08:30am - - - - - E 13 15 7 8 - - -
22/08:00am - - - - - E 17 17 9 9 - - -
22/07:30am - - - - - ENE 19 20 10 11 - - -
22/07:00am - - - - - ENE 24 26 13 14 - - -
22/06:30am - - - - - ENE 19 22 10 12 - - -
22/06:00am - - - - - ENE 19 22 10 12 - - -
22/05:30am - - - - - ENE 17 17 9 9 - - -
22/05:00am - - - - - ENE 13 17 7 9 - - -
22/04:30am - - - - - E 9 9 5 5 - - -
22/04:00am - - - - - ESE 7 9 4 5 - - -
22/03:30am - - - - - SE 7 9 4 5 - - -
22/03:00am - - - - - SE 7 7 4 4 - - -
22/02:30am - - - - - ESE 13 13 7 7 - - -
22/02:00am - - - - - E 13 13 7 7 - - -
22/01:30am - - - - - SSE 7 11 4 6 - - -
22/01:00am - - - - - SSE 7 7 4 4 - - -
22/12:30am - - - - - CALM 0 0 0 0 - - -
22/12:00am - - - - - SSE 7 9 4 5 - - -
 
Date/Time
WST
Temp
°C
App
Temp
°C
Dew
Point
°C
Rel
Hum
%
Delta-T
°C
Wind Press
QNH
hPa
Press
MSL
hPa
Rain since
9am
mm
Dir  Spd
km/h
Gust
km/h
Spd
kts
Gust
kts
21/11:30pm - - - - - SSE 6 9 3 5 - - -
21/11:00pm - - - - - SSW 9 11 5 6 - - -
21/10:30pm - - - - - SSW 9 11 5 6 - - -
21/10:00pm - - - - - WSW 11 15 6 8 - - -
21/09:30pm - - - - - WSW 11 13 6 7 - - -
21/09:00pm - - - - - WSW 13 15 7 8 - - -
21/08:30pm - - - - - WSW 11 13 6 7 - - -
21/08:00pm - - - - - WSW 13 17 7 9 - - -
21/07:30pm - - - - - WSW 13 15 7 8 - - -
21/07:00pm - - - - - WSW 19 22 10 12 - - -
21/06:30pm - - - - - WSW 24 28 13 15 - - -
21/06:00pm - - - - - WSW 24 30 13 16 - - -
21/05:30pm - - - - - W 30 33 16 18 - - -
21/05:00pm - - - - - WNW 30 32 16 17 - - -
21/04:30pm - - - - - NW 28 32 15 17 - - -
21/04:00pm - - - - - NW 28 32 15 17 - - -
21/03:30pm - - - - - NW 28 30 15 16 - - -
21/03:00pm - - - - - NW 28 30 15 16 - - -
21/02:30pm - - - - - NW 26 28 14 15 - - -
21/02:00pm - - - - - NW 28 30 15 16 - - -
21/01:30pm - - - - - NW 28 32 15 17 - - -
21/01:00pm - - - - - NW 26 30 14 16 - - -
21/12:30pm - - - - - NW 24 28 13 15 - - -
21/12:00pm - - - - - NNW 22 26 12 14 - - -
21/11:30am - - - - - NNW 20 26 11 14 - - -
21/11:00am - - - - - NW 19 22 10 12 - - -
21/10:30am - - - - - NW 17 20 9 11 - - -
21/10:00am - - - - - NNW 13 17 7 9 - - -
21/09:30am - - - - - NNW 7 11 4 6 - - -
21/09:00am - - - - - N 6 7 3 4 - - -
21/08:30am - - - - - N 7 9 4 5 - - -
21/08:00am - - - - - ENE 6 7 3 4 - - -
21/07:30am - - - - - ESE 7 9 4 5 - - -
21/07:00am - - - - - ESE 9 9 5 5 - - -
21/06:30am - - - - - ESE 9 11 5 6 - - -
21/06:00am - - - - - ESE 9 11 5 6 - - -
21/05:30am - - - - - ESE 9 11 5 6 - - -
21/05:00am - - - - - SSE 9 9 5 5 - - -
21/04:30am - - - - - SE 9 9 5 5 - - -
21/04:00am - - - - - ESE 9 9 5 5 - - -
21/03:30am - - - - - SE 9 11 5 6 - - -
21/03:00am - - - - - SE 9 11 5 6 - - -
21/02:30am - - - - - SE 11 11 6 6 - - -
21/02:00am - - - - - SSE 6 9 3 5 - - -
21/01:30am - - - - - S 7 9 4 5 - - -
21/01:00am - - - - - SSW 9 11 5 6 - - -
21/12:30am - - - - - SSW 9 11 5 6 - - -
21/12:00am - - - - - S 7 11 4 6 - - -
 
Date/Time
WST
Temp
°C
App
Temp
°C
Dew
Point
°C
Rel
Hum
%
Delta-T
°C
Wind Press
QNH
hPa
Press
MSL
hPa
Rain since
9am
mm
Dir  Spd
km/h
Gust
km/h
Spd
kts
Gust
kts
20/11:30pm - - - - - SSW 9 11 5 6 - - -
20/11:00pm - - - - - SW 11 13 6 7 - - -
20/10:30pm - - - - - SW 11 13 6 7 - - -
20/10:00pm - - - - - SW 15 17 8 9 - - -
20/09:30pm - - - - - SW 17 19 9 10 - - -
20/09:00pm - - - - - WSW 28 33 15 18 - - -
20/08:30pm - - - - - WSW 24 28 13 15 - - -
20/08:00pm - - - - - WSW 24 28 13 15 - - -
20/07:30pm - - - - - WSW 24 28 13 15 - - -
20/07:00pm - - - - - WSW 17 19 9 10 - - -
20/06:30pm - - - - - WSW 17 19 9 10 - - -
20/06:00pm - - - - - WSW 17 20 9 11 - - -
20/05:30pm - - - - - WSW 20 24 11 13 - - -
20/05:00pm - - - - - W 26 28 14 15 - - -
20/04:30pm - - - - - WNW 19 22 10 12 - - -
20/04:00pm - - - - - WNW 19 20 10 11 - - -
20/03:30pm - - - - - WNW 22 26 12 14 - - -
20/03:00pm - - - - - NW 24 28 13 15 - - -
20/02:30pm - - - - - N 15 17 8 9 - - -
20/02:00pm - - - - - N 19 22 10 12 - - -
20/01:30pm - - - - - N 20 24 11 13 - - -
20/01:00pm - - - - - N 26 30 14 16 - - -
20/12:30pm - - - - - N 22 26 12 14 - - -
20/12:00pm - - - - - NE 20 26 11 14 - - -
20/11:30am - - - - - N 19 20 10 11 - - -
20/11:00am - - - - - N 20 24 11 13 - - -
20/10:30am - - - - - NNW 19 20 10 11 - - -
20/10:00am - - - - - NNW 20 26 11 14 - - -
20/09:30am - - - - - N 30 33 16 18 - - -
20/09:00am - - - - - N 24 32 13 17 - - -
20/08:30am - - - - - N 32 39 17 21 - - -
20/08:00am - - - - - N 32 37 17 20 - - -
20/07:30am - - - - - N 39 48 21 26 - - -
20/07:00am - - - - - N 39 46 21 25 - - -
20/06:30am - - - - - NNE 35 44 19 24 - - -

Other formats

Comma delimited format used in spreadsheet applications
http://www.bom.gov.au/fwo/IDW60801/IDW60801.95602.axf

JavaScript Object Notation format (JSON) in row-major order
http://www.bom.gov.au/fwo/IDW60801/IDW60801.95602.json

Data quality

Most of these data are generated automatically and are frequently updated. Quality checks on data are not normally performed. It is possible for incorrect values to appear. Refer to information at About Latest Weather Observations and please check the disclaimer before using these data.